• Join FlightAware (Why Join?)
  • Login
  • US Flag 
03:14PM EST


 

Airport Tracker/Info


-or-


 

Live Flight TrackerFlight Track Log ✈ HBH3243 ✈ 21-Aug-2014 ✈ ZBSJ / SJW - ZSNJ / NKG

Flight Track Log - Related Links

Times and Time Zones

All times are in EDT time to prevent confusion due to time zone crossing. See the HBH3243 flight status page for this flight to view local times or setup timezone preferences in your user account.

Time Position Orientation Groundspeed Altitude Reporting Facility
EDT Latitude Longitude Course Direction KTS MPH feet Rate Location/Type
03:21AM 37.6336 115.1448 151° Southeast  Level Estimated
03:22AM 37.5526 115.2003 152° Southeast  Level Estimated
03:23AM 37.4716 115.2556 152° Southeast  Level Estimated
03:24AM 37.3905 115.3109 152° Southeast  Level Estimated
03:25AM 37.3123 115.3640 152° Southeast  Level Estimated
03:26AM 37.2342 115.4170 152° Southeast  Level Estimated
03:27AM 37.1559 115.4699 152° Southeast  Level Estimated
03:28AM 37.0777 115.5227 152° Southeast  Level Estimated
03:29AM 36.9995 115.5754 152° Southeast  Level Estimated
03:30AM 36.9212 115.6279 152° Southeast  Level Estimated
03:31AM 36.8429 115.6804 152° Southeast  Level Estimated
03:32AM 36.7646 115.7328 152° Southeast  Level Estimated
03:33AM 36.6862 115.7850 152° Southeast  Level Estimated
03:34AM 36.6079 115.8372 152° Southeast  Level Estimated
03:35AM 36.5295 115.8892 152° Southeast  Level Estimated
03:36AM 36.4511 115.9411 152° Southeast  Level Estimated
03:37AM 36.3726 115.9930 152° Southeast  Level Estimated
03:38AM 36.2942 116.0447 152° Southeast  Level Estimated
03:39AM 36.2157 116.0963 152° Southeast  Level Estimated
03:40AM 36.1372 116.1478 152° Southeast  Level Estimated
03:41AM 36.0587 116.1992 152° Southeast  Level Estimated
03:42AM 35.9801 116.2505 152° Southeast  Level Estimated
03:43AM 35.9015 116.3018 152° Southeast  Level Estimated
03:44AM 35.8229 116.3529 152° Southeast  Level Estimated
03:45AM 35.7443 116.4039 152° Southeast  Level Estimated
03:46AM 35.6657 116.4548 152° Southeast  Level Estimated
03:47AM 35.5871 116.5056 152° Southeast  Level Estimated
03:48AM 35.5084 116.5563 152° Southeast  Level Estimated
03:49AM 35.4297 116.6069 152° Southeast  Level Estimated
03:50AM 35.3510 116.6574 152° Southeast  Level Estimated
03:51AM 35.2722 116.7078 152° Southeast  Level Estimated
03:52AM 35.1935 116.7581 152° Southeast  Level Estimated
03:53AM 35.1147 116.8083 152° Southeast  Level Estimated
03:54AM 35.0359 116.8585 152° Southeast  Level Estimated
03:55AM 34.9571 116.9085 153° Southeast  Level Estimated
03:56AM 34.8782 116.9584 153° Southeast  Level Estimated
03:57AM 34.7994 117.0082 153° Southeast  Level Estimated
03:58AM 34.7205 117.0580 153° Southeast  Level Estimated
03:59AM 34.6416 117.1076 153° Southeast  Level Estimated
04:00AM 34.5626 117.1572 153° Southeast  Level Estimated
04:01AM 34.4837 117.2066 153° Southeast  Level Estimated
04:02AM 34.4047 117.2560 153° Southeast  Level Estimated
04:03AM 34.3258 117.3052 153° Southeast  Level Estimated
04:04AM 34.2468 117.3544 153° Southeast  Level Estimated
04:05AM 34.1677 117.4035 153° Southeast  Level Estimated
04:06AM 34.0887 117.4525 153° Southeast  Level Estimated
04:07AM 34.0096 117.5014 153° Southeast  Level Estimated
04:08AM 33.9305 117.5502 153° Southeast  Level Estimated
04:09AM 33.8515 117.5989 153° Southeast  Level Estimated
04:10AM 33.7723 117.6475 153° Southeast  Level Estimated
04:11AM 33.6932 117.6960 153° Southeast  Level Estimated
04:12AM 33.6140 117.7445 153° Southeast  Level Estimated
04:13AM 33.5349 117.7928 153° Southeast  Level Estimated
04:14AM 33.4557 117.8411 153° Southeast  Level Estimated
04:15AM 33.3765 117.8893 153° Southeast  Level Estimated
04:16AM 33.2972 117.9374 153° Southeast  Level Estimated
04:17AM 33.2180 117.9854 153° Southeast  Level Estimated
04:18AM 33.1387 118.0333 153° Southeast  Level Estimated
04:19AM 33.0594 118.0811 153° Southeast  Level Estimated
04:20AM 32.9801 118.1289 153° Southeast  Level Estimated
04:21AM 32.9008 118.1765 153° Southeast  Level Estimated
04:22AM 32.8215 118.2241 153° Southeast  Level Estimated
04:23AM 32.7421 118.2716 153° Southeast  Level Estimated
04:24AM 32.6627 118.3190 153° Southeast  Level Estimated
04:25AM 32.5833 118.3663 153° Southeast  Level Estimated
04:26AM 32.5039 118.4136 153° Southeast  Level Estimated
04:27AM 32.4245 118.4607 153° Southeast  Level Estimated
04:28AM 32.3450 118.5078 153° Southeast  Level Estimated
04:29AM 32.2656 118.5548 153° Southeast  Level Estimated
04:30AM 32.1861 118.6017 153° Southeast  Level Estimated
04:31AM 32.1066 118.6485 153° Southeast  Level Estimated
04:32AM 32.0271 118.6952 154° Southeast  Level Estimated
04:33AM 31.9475 118.7419 154° Southeast  Level Estimated
04:34AM 31.8680 118.7885 154° Southeast  Level Estimated
04:35AM 31.7884 118.8350 154° Southeast  Level Estimated
04:36AM 31.7421 118.8620 154° Southeast  Level Estimated
04:37AM 31.7421 118.8620 North  Level Estimated
04:38AM 31.7421 118.8620 North  Level Estimated
04:39AM 31.7421 118.8620 North  Level Estimated
04:40AM 31.7421 118.8620 North  Level Estimated
04:41AM 31.7421 118.8620 North  Level Estimated
04:42AM 31.7421 118.8620 North  Level Estimated
04:43AM 31.7421 118.8620 North  Level Estimated
04:44AM 31.7421 118.8620 North  Level Estimated
04:45AM 31.7421 118.8620 North  Level Estimated
04:46AM 31.7421 118.8620 North  Level Estimated
04:47AM 31.7421 118.8620 North  Level Estimated
04:48AM 31.7421 118.8620 North  Level Estimated
04:49AM 31.7421 118.8620 North  Level Estimated
04:50AM 31.7421 118.8620 North  Level Estimated
04:51AM 31.7421 118.8620 North  Level Estimated
04:52AM 31.7421 118.8620 North  Level Estimated